createdAt,value
2023-02-22T00:02:31.222Z,7.03
2023-02-22T00:05:32.248Z,7.12
2023-02-22T00:08:32.263Z,7.00
2023-02-22T00:11:32.240Z,6.95
2023-02-22T00:14:35.207Z,6.95
2023-02-22T00:17:37.216Z,6.94
2023-02-22T00:20:37.252Z,6.86
2023-02-22T00:23:37.296Z,6.86
2023-02-22T00:26:37.262Z,6.91
2023-02-22T00:29:38.241Z,6.91
2023-02-22T00:32:38.303Z,6.97
2023-02-22T00:35:41.236Z,7.02
2023-02-22T00:38:41.225Z,6.97
2023-02-22T00:41:41.299Z,6.92
2023-02-22T00:44:41.230Z,6.93
2023-02-22T00:47:41.272Z,6.99
2023-02-22T00:50:42.267Z,6.95
2023-02-22T00:53:42.222Z,6.93
2023-02-22T00:56:42.265Z,6.86
2023-02-22T00:59:42.208Z,6.90
2023-02-22T01:02:43.263Z,6.77
2023-02-22T01:05:45.232Z,6.83
2023-02-22T01:08:45.246Z,6.87
2023-02-22T01:11:45.261Z,6.81
2023-02-22T01:14:46.220Z,6.87
2023-02-22T01:17:46.257Z,6.91
2023-02-22T01:20:46.268Z,6.94
2023-02-22T01:23:46.262Z,6.99
2023-02-22T01:26:46.242Z,6.90
2023-02-22T01:29:46.256Z,6.88
2023-02-22T01:32:46.193Z,6.82
2023-02-22T01:35:48.224Z,6.81
2023-02-22T01:38:48.220Z,6.77
2023-02-22T01:41:48.270Z,6.54
2023-02-22T01:44:50.214Z,6.60
2023-02-22T01:47:50.247Z,6.67
2023-02-22T01:50:59.216Z,6.59
2023-02-22T01:54:06.226Z,6.53
2023-02-22T01:57:22.222Z,6.53
2023-02-22T02:00:27.226Z,6.49
2023-02-22T02:03:40.209Z,6.48
2023-02-22T02:06:45.277Z,6.50
2023-02-22T02:10:01.214Z,6.51
2023-02-22T02:13:03.220Z,6.55
2023-02-22T02:16:03.275Z,6.63
2023-02-22T02:19:03.264Z,6.66
2023-02-22T02:22:14.256Z,6.70
2023-02-22T02:25:37.270Z,6.68
2023-02-22T02:29:22.262Z,6.75
2023-02-22T02:32:28.297Z,6.66
2023-02-22T02:35:50.249Z,6.73
2023-02-22T02:39:11.264Z,6.66
2023-02-22T02:42:13.221Z,6.71
2023-02-22T02:45:23.234Z,6.58
2023-02-22T02:48:25.224Z,6.64
2023-02-22T02:51:25.279Z,6.58
2023-02-22T02:54:25.243Z,6.60
2023-02-22T02:57:25.194Z,6.57
2023-02-22T03:00:30.207Z,6.53
2023-02-22T03:03:36.190Z,6.49
2023-02-22T03:06:49.221Z,6.45
2023-02-22T03:10:19.215Z,6.39
2023-02-22T03:13:43.214Z,6.36
2023-02-22T03:17:00.190Z,6.40
2023-02-22T03:20:16.264Z,6.38
2023-02-22T03:23:45.268Z,6.33
2023-02-22T03:27:01.221Z,6.33
2023-02-22T03:30:03.255Z,6.37
2023-02-22T03:33:06.268Z,6.39
2023-02-22T03:36:12.261Z,6.24
2023-02-22T03:39:14.248Z,6.35
2023-02-22T03:42:18.209Z,6.28
2023-02-22T03:45:19.229Z,6.23
2023-02-22T03:48:46.264Z,6.16
2023-02-22T03:51:47.216Z,5.99
2023-02-22T03:54:47.228Z,5.94
2023-02-22T03:57:49.275Z,5.97
2023-02-22T04:00:51.254Z,6.03
2023-02-22T04:03:51.260Z,6.03
2023-02-22T04:06:51.250Z,6.02
2023-02-22T04:09:51.474Z,6.00
2023-02-22T04:12:51.260Z,5.99
2023-02-22T04:15:51.318Z,5.93
2023-02-22T04:18:51.258Z,5.71
2023-02-22T04:21:51.190Z,5.77
2023-02-22T04:24:52.274Z,5.53
2023-02-22T04:27:52.238Z,5.53
2023-02-22T04:30:53.316Z,5.51
2023-02-22T04:33:54.262Z,5.42
2023-02-22T04:36:54.248Z,5.28
2023-02-22T04:39:54.299Z,5.12
2023-02-22T04:42:55.228Z,5.11
2023-02-22T04:45:55.253Z,5.16
2023-02-22T04:48:55.275Z,5.17
2023-02-22T04:51:56.256Z,5.18
2023-02-22T04:54:57.273Z,5.19
2023-02-22T04:57:57.260Z,5.23
2023-02-22T05:00:57.256Z,5.33
2023-02-22T05:03:57.228Z,5.40
2023-02-22T05:06:57.222Z,5.44
2023-02-22T05:09:57.268Z,5.48
2023-02-22T05:12:57.211Z,5.52
2023-02-22T05:15:57.320Z,5.55
2023-02-22T05:18:57.211Z,5.54
2023-02-22T05:21:57.233Z,5.57
2023-02-22T05:24:59.210Z,5.52
2023-02-22T05:27:59.239Z,5.48
2023-02-22T05:30:59.255Z,5.41
2023-02-22T05:33:59.262Z,5.37
2023-02-22T05:36:59.215Z,5.32
2023-02-22T05:39:59.236Z,5.26
2023-02-22T05:42:59.268Z,5.17
2023-02-22T05:45:59.265Z,5.23
2023-02-22T05:48:59.221Z,5.26
2023-02-22T05:51:59.251Z,5.30
2023-02-22T05:54:59.262Z,5.38
2023-02-22T05:57:59.213Z,5.47
2023-02-22T06:00:59.261Z,5.55
2023-02-22T06:04:05.241Z,5.52
2023-02-22T06:07:05.221Z,5.58
2023-02-22T06:10:05.263Z,5.66
2023-02-22T06:13:06.248Z,5.78
2023-02-22T06:16:06.312Z,5.83
2023-02-22T06:19:06.251Z,5.87
2023-02-22T06:22:09.253Z,5.95
2023-02-22T06:25:09.215Z,6.03
2023-02-22T06:28:09.263Z,6.01
2023-02-22T06:31:09.237Z,6.11
2023-02-22T06:34:09.289Z,5.89
2023-02-22T06:37:09.238Z,6.25
2023-02-22T06:40:09.255Z,6.21
2023-02-22T06:43:10.228Z,6.32
2023-02-22T06:46:10.254Z,6.37
2023-02-22T06:49:24.223Z,6.35
2023-02-22T06:52:36.864Z,6.41
2023-02-22T06:55:42.235Z,6.38
2023-02-22T06:58:46.247Z,6.51
2023-02-22T07:01:47.237Z,6.51
2023-02-22T07:04:53.232Z,6.53
2023-02-22T07:07:53.267Z,6.53
2023-02-22T07:10:53.226Z,6.75
2023-02-22T07:13:53.229Z,6.68
2023-02-22T07:16:53.247Z,6.83
2023-02-22T07:19:53.436Z,6.91
2023-02-22T07:23:02.491Z,7.07
2023-02-22T07:26:02.232Z,7.20
2023-02-22T07:29:02.244Z,7.26
2023-02-22T07:32:11.625Z,7.36
2023-02-22T07:35:12.589Z,7.48
2023-02-22T07:38:12.357Z,7.40
2023-02-22T07:41:12.268Z,7.57
2023-02-22T07:44:15.326Z,7.75
2023-02-22T07:47:20.276Z,7.75
2023-02-22T07:50:21.252Z,7.79
2023-02-22T07:53:28.464Z,7.67
2023-02-22T07:56:30.277Z,8.11
2023-02-22T07:59:30.227Z,8.29
2023-02-22T08:02:32.374Z,8.35
2023-02-22T08:05:33.231Z,8.33
2023-02-22T08:08:33.255Z,8.56
2023-02-22T08:11:33.265Z,8.85
2023-02-22T08:14:40.388Z,8.52
2023-02-22T08:17:40.275Z,8.78
2023-02-22T08:20:34.271Z,8.01
2023-02-22T08:23:16.861Z,8.60
2023-02-22T08:26:02.267Z,8.64
2023-02-22T08:28:43.242Z,8.70
2023-02-22T08:35:06.404Z,8.43
2023-02-22T08:38:13.664Z,7.67
2023-02-22T08:41:14.631Z,8.73
2023-02-22T08:44:14.254Z,8.89
2023-02-22T08:47:18.400Z,8.74
2023-02-22T08:50:23.847Z,8.84
2023-02-22T08:56:23.355Z,9.06
2023-02-22T08:59:23.327Z,9.09
2023-02-22T09:02:31.262Z,9.17
2023-02-22T09:05:34.237Z,9.36
2023-02-22T09:08:34.209Z,9.16
2023-02-22T09:11:34.246Z,9.52
2023-02-22T09:14:37.294Z,9.57
2023-02-22T09:17:37.246Z,9.54
2023-02-22T09:20:39.300Z,9.23
2023-02-22T09:23:39.248Z,9.76
2023-02-22T09:27:13.993Z,10.41
2023-02-22T09:30:20.285Z,10.79
2023-02-22T09:33:42.205Z,10.47
2023-02-22T09:36:42.324Z,10.58
2023-02-22T09:39:44.285Z,10.85
2023-02-22T09:42:49.238Z,11.15
2023-02-22T09:46:02.490Z,11.80
2023-02-22T09:49:08.690Z,11.71
2023-02-22T09:52:29.566Z,11.88
2023-02-22T09:55:43.218Z,12.13
2023-02-22T09:58:50.225Z,14.61
2023-02-22T10:02:02.286Z,17.37
2023-02-22T10:05:12.309Z,17.94
2023-02-22T10:08:15.233Z,19.76
2023-02-22T10:11:26.246Z,20.58
2023-02-22T10:14:43.800Z,20.30
2023-02-22T10:17:50.254Z,20.14
2023-02-22T10:20:56.238Z,19.15
2023-02-22T10:23:56.279Z,18.30
2023-02-22T10:26:57.226Z,19.19
2023-02-22T10:30:00.294Z,19.71
2023-02-22T10:33:04.236Z,20.78
2023-02-22T10:36:06.297Z,18.98
2023-02-22T10:39:14.239Z,18.57
2023-02-22T10:42:22.231Z,19.17
2023-02-22T10:45:43.262Z,19.66
2023-02-22T10:48:45.269Z,19.40
2023-02-22T10:51:46.286Z,19.93
2023-02-22T10:54:55.494Z,17.78
2023-02-22T10:57:59.267Z,16.33
2023-02-22T11:00:59.345Z,16.33
2023-02-22T11:04:01.271Z,16.01
2023-02-22T11:07:03.266Z,16.86
2023-02-22T11:10:11.269Z,15.51
2023-02-22T11:13:11.290Z,18.16
2023-02-22T11:16:17.329Z,19.10
2023-02-22T11:19:23.324Z,20.43
2023-02-22T11:22:33.243Z,21.38
2023-02-22T11:25:37.293Z,19.59
2023-02-22T11:28:42.263Z,18.42
2023-02-22T11:31:43.324Z,18.25
2023-02-22T11:34:44.295Z,16.89
2023-02-22T11:37:49.242Z,15.56
2023-02-22T11:40:49.297Z,14.59
2023-02-22T11:43:49.280Z,13.73
2023-02-22T11:46:49.323Z,13.46
2023-02-22T11:49:56.261Z,13.11
2023-02-22T11:52:59.290Z,13.10
2023-02-22T11:56:38.549Z,12.77
2023-02-22T12:00:03.260Z,12.54
2023-02-22T12:03:42.344Z,12.70
2023-02-22T12:06:52.251Z,12.97
2023-02-22T12:09:57.286Z,14.06
2023-02-22T12:13:11.284Z,14.06
2023-02-22T12:16:19.616Z,14.15
2023-02-22T12:19:24.289Z,14.34
2023-02-22T12:22:32.228Z,13.79
2023-02-22T12:25:32.292Z,13.62
2023-02-22T12:28:38.333Z,13.29
2023-02-22T12:31:55.357Z,13.74
2023-02-22T12:35:12.309Z,13.45
2023-02-22T12:38:16.309Z,13.90
2023-02-22T12:41:24.284Z,14.10
2023-02-22T12:44:31.258Z,14.31
2023-02-22T12:47:35.300Z,14.57
2023-02-22T12:50:41.306Z,13.89
2023-02-22T12:53:43.253Z,13.78
2023-02-22T12:56:44.316Z,13.92
2023-02-22T12:59:50.288Z,13.64
2023-02-22T13:03:08.298Z,13.83
2023-02-22T13:06:45.300Z,13.58
2023-02-22T13:10:03.305Z,12.60
2023-02-22T13:13:21.289Z,12.41
2023-02-22T13:17:00.312Z,12.34
2023-02-22T13:20:15.266Z,12.22
2023-02-22T13:23:13.430Z,12.09
2023-02-22T13:26:22.257Z,12.05
2023-02-22T13:29:26.314Z,12.13
2023-02-22T13:33:03.295Z,11.60
2023-02-22T13:36:53.259Z,11.86
2023-02-22T13:40:10.358Z,11.93
2023-02-22T13:43:19.283Z,12.17
2023-02-22T13:46:38.309Z,12.31
2023-02-22T13:49:52.299Z,12.17
2023-02-22T13:52:54.305Z,12.30
2023-02-22T13:55:58.307Z,12.10
2023-02-22T13:59:04.248Z,11.96
2023-02-22T14:02:06.335Z,11.94
2023-02-22T14:05:06.349Z,11.88
2023-02-22T14:08:06.291Z,11.80
2023-02-22T14:11:33.255Z,11.63
2023-02-22T14:14:33.282Z,11.78
2023-02-22T14:17:33.259Z,11.77
2023-02-22T14:20:52.263Z,11.55
2023-02-22T14:23:56.298Z,11.31
2023-02-22T14:27:08.247Z,11.19
2023-02-22T14:30:12.293Z,11.06
2023-02-22T14:33:12.264Z,10.89
2023-02-22T14:36:13.276Z,11.01
2023-02-22T14:39:21.301Z,10.68
2023-02-22T14:42:31.303Z,10.55
2023-02-22T14:45:59.306Z,10.41
2023-02-22T14:49:00.271Z,10.28
2023-02-22T14:52:07.293Z,9.96
2023-02-22T14:55:34.457Z,9.97
2023-02-22T14:58:43.285Z,9.71
2023-02-22T15:01:58.703Z,9.57
2023-02-22T15:05:11.282Z,9.33
2023-02-22T15:08:13.279Z,9.22
2023-02-22T15:11:13.321Z,9.18
2023-02-22T15:14:25.156Z,9.06
2023-02-22T15:17:36.293Z,8.94
2023-02-22T15:20:37.294Z,8.79
2023-02-22T15:23:44.517Z,8.57
2023-02-22T15:27:01.633Z,8.57
2023-02-22T15:30:02.428Z,8.59
2023-02-22T15:33:04.766Z,8.52
2023-02-22T15:36:11.264Z,8.47
2023-02-22T15:39:15.365Z,8.45
2023-02-22T15:42:29.901Z,8.40
2023-02-22T15:45:35.320Z,8.56
2023-02-22T15:48:35.272Z,8.61
2023-02-22T15:51:35.258Z,8.68
2023-02-22T15:54:35.265Z,8.62
2023-02-22T15:57:37.274Z,8.43
2023-02-22T16:00:46.314Z,8.58
2023-02-22T16:03:54.314Z,8.40
2023-02-22T16:06:55.302Z,8.17
2023-02-22T16:10:00.436Z,7.87
2023-02-22T16:13:00.311Z,7.78
2023-02-22T16:16:08.260Z,7.56
2023-02-22T16:19:42.695Z,7.42
2023-02-22T16:22:41.259Z,7.40
2023-02-22T16:25:34.265Z,7.40
2023-02-22T16:28:42.260Z,7.41
2023-02-22T16:31:45.448Z,7.29
2023-02-22T16:34:45.288Z,7.46
2023-02-22T16:37:38.250Z,7.33
2023-02-22T16:40:44.299Z,7.44
2023-02-22T16:43:45.297Z,7.44
2023-02-22T16:46:45.303Z,7.44
2023-02-22T16:49:45.293Z,7.30
2023-02-22T16:52:45.305Z,7.28
2023-02-22T16:55:45.288Z,7.16
2023-02-22T16:58:50.290Z,6.95
2023-02-22T17:01:50.314Z,6.69
2023-02-22T17:04:55.304Z,6.56
2023-02-22T17:07:56.298Z,6.37
2023-02-22T17:10:58.269Z,6.16
2023-02-22T17:13:58.301Z,6.17
2023-02-22T17:17:00.908Z,5.98
2023-02-22T17:20:01.280Z,5.90
2023-02-22T17:23:01.256Z,5.72
2023-02-22T17:26:10.285Z,5.69
2023-02-22T17:29:10.254Z,5.60
2023-02-22T17:32:10.302Z,5.54
2023-02-22T17:35:10.272Z,5.35
2023-02-22T17:38:12.264Z,5.33
2023-02-22T17:41:13.299Z,5.27
2023-02-22T17:44:13.276Z,5.19
2023-02-22T17:47:13.301Z,5.13
2023-02-22T17:50:13.308Z,5.07
2023-02-22T17:53:13.273Z,5.00
2023-02-22T17:56:24.271Z,4.94
2023-02-22T17:59:24.243Z,4.89
2023-02-22T18:02:24.383Z,4.79
2023-02-22T18:05:25.255Z,4.72
2023-02-22T18:08:25.284Z,4.68
2023-02-22T18:11:25.307Z,4.62
2023-02-22T18:14:25.282Z,4.64
2023-02-22T18:17:25.274Z,4.44
2023-02-22T18:20:37.250Z,4.52
2023-02-22T18:23:37.295Z,4.43
2023-02-22T18:26:37.323Z,4.40
2023-02-22T18:29:37.280Z,4.40
2023-02-22T18:32:38.308Z,4.32
2023-02-22T18:35:38.337Z,4.25
2023-02-22T18:38:38.291Z,4.20
2023-02-22T18:41:38.257Z,4.14
2023-02-22T18:44:39.256Z,4.06
2023-02-22T18:47:39.302Z,4.01
2023-02-22T18:50:39.268Z,3.87
2023-02-22T18:53:39.285Z,3.85
2023-02-22T18:56:40.294Z,3.89
2023-02-22T18:59:40.250Z,3.84
2023-02-22T19:02:40.298Z,3.81
2023-02-22T19:05:40.272Z,3.71
2023-02-22T19:08:40.260Z,3.69
2023-02-22T19:11:40.308Z,3.65
2023-02-22T19:14:40.280Z,3.56
2023-02-22T19:17:43.253Z,3.47
2023-02-22T19:20:43.291Z,3.48
2023-02-22T19:23:43.413Z,3.48
2023-02-22T19:26:43.281Z,3.41
2023-02-22T19:29:49.439Z,3.45
2023-02-22T19:32:53.282Z,3.46
2023-02-22T19:35:54.270Z,3.51
2023-02-22T19:38:54.248Z,3.37
2023-02-22T19:41:54.254Z,3.41
2023-02-22T19:44:55.285Z,3.36
2023-02-22T19:47:55.266Z,3.29
2023-02-22T19:51:04.277Z,3.14
2023-02-22T19:54:04.302Z,3.17
2023-02-22T19:57:05.245Z,3.12
2023-02-22T20:00:05.299Z,3.11
2023-02-22T20:03:15.286Z,2.93
2023-02-22T20:06:15.287Z,3.05
2023-02-22T20:09:15.316Z,2.90
2023-02-22T20:12:15.290Z,3.06
2023-02-22T20:15:15.287Z,2.97
2023-02-22T20:18:15.281Z,2.82
2023-02-22T20:21:20.482Z,2.77
2023-02-22T20:24:22.280Z,2.84
2023-02-22T20:27:22.250Z,2.83
2023-02-22T20:30:24.279Z,2.82
2023-02-22T20:33:24.406Z,2.68
2023-02-22T20:36:25.294Z,2.78
2023-02-22T20:39:26.258Z,2.76
2023-02-22T20:42:26.253Z,2.72
2023-02-22T20:45:26.302Z,2.68
2023-02-22T20:48:26.263Z,2.63
2023-02-22T20:51:27.286Z,2.58
2023-02-22T20:54:27.303Z,2.54
2023-02-22T20:57:27.230Z,2.51
2023-02-22T21:00:27.252Z,2.46
2023-02-22T21:03:27.270Z,2.39
2023-02-22T21:06:28.294Z,2.40
2023-02-22T21:09:30.243Z,2.38
2023-02-22T21:12:30.298Z,2.33
2023-02-22T21:15:32.258Z,2.33
2023-02-22T21:18:34.261Z,2.27
2023-02-22T21:21:34.285Z,2.24
2023-02-22T21:24:36.163Z,2.28
2023-02-22T21:27:36.234Z,2.16
2023-02-22T21:30:36.367Z,2.44
2023-02-22T21:33:38.295Z,2.51
2023-02-22T21:36:39.240Z,2.45
2023-02-22T21:39:35.302Z,2.40
2023-02-22T21:42:21.305Z,2.27
2023-02-22T21:45:21.307Z,2.19
2023-02-22T21:48:21.273Z,2.24
2023-02-22T21:51:42.294Z,2.22
2023-02-22T21:54:42.285Z,2.05
2023-02-22T21:57:43.258Z,2.07
2023-02-22T22:00:44.291Z,1.91
2023-02-22T22:03:44.299Z,1.90
2023-02-22T22:06:46.285Z,1.90
2023-02-22T22:09:48.244Z,1.90
2023-02-22T22:12:49.270Z,1.95
2023-02-22T22:15:49.296Z,1.90
2023-02-22T22:18:50.254Z,1.86
2023-02-22T22:21:50.250Z,1.80
2023-02-22T22:24:52.286Z,1.72
2023-02-22T22:27:55.242Z,1.75
2023-02-22T22:30:55.325Z,1.64
2023-02-22T22:33:56.339Z,1.64
2023-02-22T22:36:56.253Z,1.89
2023-02-22T22:39:56.262Z,2.01
2023-02-22T22:42:56.257Z,2.16
2023-02-22T22:45:56.340Z,2.29
2023-02-22T22:48:56.278Z,2.47
2023-02-22T22:51:56.277Z,2.58
2023-02-22T22:54:57.266Z,2.72
2023-02-22T22:57:57.245Z,2.73
2023-02-22T23:00:57.264Z,2.90
2023-02-22T23:04:03.272Z,3.01
2023-02-22T23:07:04.246Z,3.04
2023-02-22T23:10:04.227Z,3.11
2023-02-22T23:13:04.230Z,3.13
2023-02-22T23:16:04.333Z,3.18
2023-02-22T23:19:05.238Z,3.19
2023-02-22T23:22:05.447Z,3.23
2023-02-22T23:25:06.281Z,3.25
2023-02-22T23:28:07.289Z,3.33
2023-02-22T23:31:09.380Z,3.33
2023-02-22T23:34:17.283Z,3.38
2023-02-22T23:37:17.257Z,3.45
2023-02-22T23:40:23.246Z,3.49
2023-02-22T23:43:23.229Z,3.54
2023-02-22T23:46:29.282Z,3.37
2023-02-22T23:49:30.293Z,3.62
2023-02-22T23:52:30.244Z,3.67
2023-02-22T23:55:30.282Z,3.69
2023-02-22T23:58:30.229Z,3.73
